Jasper — TCTL2 — position and weather

sailwx.info

Track history (hours):
 
Tides and Currents Weather Stations Pressure Air Temp Water Temp Dewpoint Dewpoint Depression Visibility Wind Speed Wind Dir Waves Ship Positions

Jasper

Last reported at 2014-Sep-30 11:17 UTC. Time now 2014-Oct-01 14:22 UTC.
Position N 40°26' E 029°05'.

Length 94 m; draft 3.8 m.

Type: Cargo ship. MMSI: 271002689.

Date/timePositionNaut miles runAvg speedWind from/ knotsBaromVisibWave heightAir tempDewpointWater temp
2014-Sep-30 11:17N 40°26' E 029°05'15 8.0
2014-Sep-30 09:24N 40°35' E 028°49'910.9
2014-Sep-30 08:32N 40°40' E 028°59'1111.0
2014-Sep-30 07:32N 40°43' E 029°13'  
2014-Sep-26 19:33N 40°45' E 029°29'8 8.2
2014-Sep-26 18:32N 40°43' E 029°19'9 8.8
2014-Sep-26 17:34N 40°41' E 029°08'9 8.4
2014-Sep-26 16:32N 40°38' E 028°57'14 4.8
2014-Sep-26 13:31N 40°25' E 029°05'  
2014-Sep-21 01:20N 40°44' E 029°24'6 7.2
2014-Sep-21 00:33N 40°45' E 029°17'9 8.7
2014-Sep-20 23:33N 40°48' E 029°06'13 3.1
2014-Sep-20 19:24N 40°57' E 028°54'  
Track history (hours):
 
Tides and Currents Weather Stations Pressure Air Temp Water Temp Dewpoint Dewpoint Depression Visibility Wind Speed Wind Dir Waves Ship Positions

Jasper

Last reported at 2014-Sep-30 11:17 UTC. Time now 2014-Oct-01 14:23 UTC.
Position N 40°26' E 029°05'.

Length 94 m; draft 3.8 m.

Type: Cargo ship. MMSI: 271002689.

Date/timePositionNaut miles runAvg speedWind from/ knotsBaromVisibWave heightAir tempDewpointWater temp
2014-Sep-30 11:17N 40°26' E 029°05'15 8.0
2014-Sep-30 09:24N 40°35' E 028°49'910.9
2014-Sep-30 08:32N 40°40' E 028°59'1111.0
2014-Sep-30 07:32N 40°43' E 029°13'  
2014-Sep-26 19:33N 40°45' E 029°29'8 8.2
2014-Sep-26 18:32N 40°43' E 029°19'9 8.8
2014-Sep-26 17:34N 40°41' E 029°08'9 8.4
2014-Sep-26 16:32N 40°38' E 028°57'14 4.8
2014-Sep-26 13:31N 40°25' E 029°05'  
2014-Sep-21 01:20N 40°44' E 029°24'6 7.2
2014-Sep-21 00:33N 40°45' E 029°17'9 8.7
2014-Sep-20 23:33N 40°48' E 029°06'13 3.1
2014-Sep-20 19:24N 40°57' E 028°54'  

Dump ship's entire track history